createdAt,value
2024-02-29T00:02:27.517Z,4.70
2024-02-29T00:12:33.145Z,4.30
2024-02-29T00:15:00.992Z,5.00
2024-02-29T00:17:28.792Z,4.00
2024-02-29T00:19:56.607Z,3.50
2024-02-29T00:22:24.348Z,4.20
2024-02-29T00:24:52.291Z,5.80
2024-02-29T00:35:00.820Z,3.30
2024-02-29T00:37:29.981Z,3.70
2024-02-29T00:39:59.991Z,2.80
2024-02-29T00:42:28.100Z,4.00
2024-02-29T00:44:56.008Z,4.80
2024-02-29T00:47:23.824Z,5.30
2024-02-29T00:49:51.591Z,3.00
2024-02-29T00:52:19.421Z,2.50
2024-02-29T00:54:47.390Z,3.30
2024-02-29T00:57:15.289Z,3.60
2024-02-29T01:07:24.165Z,3.70
2024-02-29T01:09:52.106Z,5.20
2024-02-29T01:12:19.897Z,4.20
2024-02-29T01:14:47.697Z,3.50
2024-02-29T01:17:15.434Z,4.90
2024-02-29T01:19:43.293Z,4.70
2024-02-29T01:29:51.998Z,5.60
2024-02-29T01:32:26.374Z,3.90
2024-02-29T01:42:31.294Z,2.70
2024-02-29T01:44:59.026Z,2.70
2024-02-29T01:47:27.534Z,3.20
2024-02-29T01:49:58.748Z,4.60
2024-02-29T01:52:27.792Z,3.80
2024-02-29T02:02:35.020Z,4.60
2024-02-29T02:05:02.737Z,3.90
2024-02-29T02:07:30.604Z,4.10
2024-02-29T02:09:58.590Z,4.60
2024-02-29T02:20:08.092Z,3.50
2024-02-29T02:30:12.950Z,5.00
2024-02-29T02:32:41.792Z,5.10
2024-02-29T02:35:10.731Z,4.90
2024-02-29T02:37:38.603Z,4.60
2024-02-29T02:40:07.333Z,4.40
2024-02-29T02:42:35.437Z,5.20
2024-02-29T02:45:04.066Z,5.70
2024-02-29T02:47:31.933Z,4.90
2024-02-29T02:49:59.772Z,5.10
2024-02-29T03:00:11.679Z,4.10
2024-02-29T03:09:03.218Z,2.80
2024-02-29T03:11:31.112Z,3.20
2024-02-29T03:20:39.295Z,3.90
2024-02-29T03:23:07.160Z,3.40
2024-02-29T03:25:34.308Z,5.40
2024-02-29T03:28:01.727Z,3.70
2024-02-29T03:30:29.271Z,4.50
2024-02-29T03:32:56.483Z,4.70
2024-02-29T03:35:23.619Z,5.50
2024-02-29T03:37:50.791Z,4.00
2024-02-29T03:40:17.995Z,6.10
2024-02-29T03:42:45.244Z,3.10
2024-02-29T03:45:12.230Z,5.20
2024-02-29T03:47:39.493Z,4.70
2024-02-29T03:50:07.372Z,5.10
2024-02-29T03:52:34.593Z,5.60
2024-02-29T03:55:01.576Z,3.70
2024-02-29T03:57:28.687Z,3.60
2024-02-29T03:59:55.627Z,4.10
2024-02-29T04:02:23.720Z,6.30
2024-02-29T04:04:50.984Z,3.10
2024-02-29T04:07:18.381Z,5.30
2024-02-29T04:09:45.589Z,4.50
2024-02-29T04:12:12.620Z,6.00
2024-02-29T04:14:39.490Z,5.60
2024-02-29T04:17:06.513Z,4.30
2024-02-29T04:19:33.572Z,3.60
2024-02-29T04:22:00.892Z,4.70
2024-02-29T04:24:28.059Z,4.60
2024-02-29T04:26:55.001Z,4.10
2024-02-29T04:29:22.139Z,4.90
2024-02-29T04:31:49.358Z,4.60
2024-02-29T04:34:16.388Z,4.00
2024-02-29T04:36:43.469Z,2.90
2024-02-29T04:39:10.642Z,3.10
2024-02-29T04:41:37.581Z,4.30
2024-02-29T04:44:04.736Z,4.90
2024-02-29T04:46:31.984Z,3.70
2024-02-29T04:48:58.876Z,5.60
2024-02-29T04:51:25.782Z,2.70
2024-02-29T04:53:52.927Z,3.60
2024-02-29T04:56:20.479Z,3.50
2024-02-29T04:58:48.555Z,4.40
2024-02-29T05:01:17.681Z,6.10
2024-02-29T05:03:45.113Z,5.30
2024-02-29T05:06:16.664Z,5.60
2024-02-29T05:08:44.843Z,4.40
2024-02-29T05:11:11.917Z,3.20
2024-02-29T05:13:39.229Z,2.20
2024-02-29T05:16:06.957Z,3.40
2024-02-29T05:18:34.194Z,4.60
2024-02-29T05:21:01.424Z,4.60
2024-02-29T05:23:28.448Z,5.10
2024-02-29T05:25:55.389Z,5.40
2024-02-29T05:28:22.229Z,4.70
2024-02-29T05:30:49.197Z,4.60
2024-02-29T05:33:16.266Z,5.60
2024-02-29T05:35:43.381Z,5.20
2024-02-29T05:38:10.451Z,3.20
2024-02-29T05:40:37.577Z,4.70
2024-02-29T05:43:05.173Z,4.40
2024-02-29T05:45:32.522Z,5.30
2024-02-29T05:47:59.459Z,5.40
2024-02-29T05:50:29.206Z,4.80
2024-02-29T05:52:59.164Z,6.10
2024-02-29T05:55:26.127Z,4.50
2024-02-29T05:57:53.198Z,4.90
2024-02-29T06:00:22.286Z,5.50
2024-02-29T06:02:51.297Z,6.70
2024-02-29T06:05:22.786Z,6.00
2024-02-29T06:07:49.845Z,5.30
2024-02-29T06:10:17.938Z,6.20
2024-02-29T06:12:46.418Z,3.90
2024-02-29T06:15:13.542Z,5.60
2024-02-29T06:17:40.742Z,4.80
2024-02-29T06:20:12.662Z,5.00
2024-02-29T06:22:40.474Z,6.60
2024-02-29T06:25:11.652Z,8.70
2024-02-29T06:27:39.953Z,4.20
2024-02-29T06:30:09.035Z,3.90
2024-02-29T06:32:36.625Z,4.60
2024-02-29T06:35:04.768Z,5.50
2024-02-29T06:37:32.242Z,8.10
2024-02-29T06:40:00.043Z,7.60
2024-02-29T06:42:27.863Z,4.00
2024-02-29T06:44:55.116Z,4.20
2024-02-29T06:47:22.150Z,6.10
2024-02-29T06:49:49.425Z,4.30
2024-02-29T06:52:17.743Z,5.40
2024-02-29T06:54:46.086Z,7.30
2024-02-29T06:57:13.210Z,5.40
2024-02-29T06:59:40.660Z,4.60
2024-02-29T07:02:07.921Z,5.50
2024-02-29T07:04:35.376Z,5.10
2024-02-29T07:07:04.421Z,7.00
2024-02-29T07:09:31.837Z,6.90
2024-02-29T07:11:59.280Z,5.00
2024-02-29T07:14:26.443Z,5.40
2024-02-29T07:16:53.689Z,6.20
2024-02-29T07:19:21.717Z,6.00
2024-02-29T07:21:48.853Z,7.40
2024-02-29T07:24:15.866Z,5.90
2024-02-29T07:26:43.322Z,6.60
2024-02-29T07:29:10.660Z,7.00
2024-02-29T07:31:41.480Z,6.90
2024-02-29T07:34:11.427Z,4.60
2024-02-29T07:36:38.696Z,4.80
2024-02-29T07:39:08.074Z,4.50
2024-02-29T07:41:35.757Z,7.40
2024-02-29T07:44:03.488Z,5.90
2024-02-29T07:46:31.973Z,6.10
2024-02-29T07:48:59.677Z,5.00
2024-02-29T07:51:27.260Z,6.80
2024-02-29T07:53:54.684Z,2.80
2024-02-29T07:56:21.897Z,4.50
2024-02-29T07:58:49.256Z,4.10
2024-02-29T08:01:17.235Z,5.90
2024-02-29T08:03:44.836Z,5.10
2024-02-29T08:06:13.180Z,4.60
2024-02-29T08:08:40.826Z,4.70
2024-02-29T08:11:08.214Z,7.20
2024-02-29T08:13:35.739Z,7.80
2024-02-29T08:16:04.034Z,5.80
2024-02-29T08:18:34.263Z,6.80
2024-02-29T08:21:19.816Z,2.80
2024-02-29T08:23:47.069Z,5.70
2024-02-29T08:27:52.541Z,6.30
2024-02-29T08:30:20.923Z,6.80
2024-02-29T08:32:50.274Z,6.40
2024-02-29T08:35:19.412Z,6.50
2024-02-29T08:37:47.385Z,7.60
2024-02-29T08:40:15.530Z,8.80
2024-02-29T08:42:43.569Z,6.40
2024-02-29T08:45:11.585Z,7.10
2024-02-29T08:47:39.486Z,6.50
2024-02-29T08:50:08.250Z,6.10
2024-02-29T08:52:36.411Z,7.50
2024-02-29T08:55:04.840Z,7.30
2024-02-29T08:57:32.774Z,7.90
2024-02-29T09:00:01.035Z,7.70
2024-02-29T09:02:28.998Z,7.30
2024-02-29T09:04:56.870Z,6.20
2024-02-29T09:07:25.013Z,7.40
2024-02-29T09:09:53.160Z,7.90
2024-02-29T09:12:21.104Z,5.60
2024-02-29T09:14:49.089Z,7.60
2024-02-29T09:17:17.118Z,7.90
2024-02-29T09:19:44.992Z,6.40
2024-02-29T09:22:13.124Z,6.80
2024-02-29T09:24:41.268Z,7.50
2024-02-29T09:27:09.306Z,7.50
2024-02-29T09:29:37.186Z,7.60
2024-02-29T09:32:05.754Z,7.50
2024-02-29T09:34:38.468Z,6.90
2024-02-29T09:37:08.350Z,6.50
2024-02-29T09:39:36.449Z,7.30
2024-02-29T09:42:13.246Z,7.10
2024-02-29T09:44:44.170Z,6.50
2024-02-29T09:47:14.258Z,7.10
2024-02-29T09:49:43.647Z,6.20
2024-02-29T09:52:14.214Z,6.40
2024-02-29T09:54:42.601Z,6.00
2024-02-29T09:57:13.258Z,6.40
2024-02-29T09:59:45.052Z,7.70
2024-02-29T10:02:18.921Z,6.70
2024-02-29T10:04:47.987Z,7.40
2024-02-29T10:07:16.360Z,6.00
2024-02-29T10:09:45.689Z,6.50
2024-02-29T10:12:18.892Z,6.30
2024-02-29T10:14:47.627Z,6.60
2024-02-29T10:17:15.501Z,7.10
2024-02-29T10:19:43.475Z,6.60
2024-02-29T10:22:11.692Z,7.00
2024-02-29T10:24:39.739Z,5.60
2024-02-29T10:27:07.694Z,6.80
2024-02-29T10:29:35.553Z,5.90
2024-02-29T10:32:03.409Z,5.00
2024-02-29T10:34:31.433Z,6.00
2024-02-29T10:36:59.502Z,6.00
2024-02-29T10:39:28.011Z,6.40
2024-02-29T10:41:57.216Z,6.00
2024-02-29T10:44:25.806Z,5.90
2024-02-29T10:46:53.687Z,6.60
2024-02-29T10:49:30.562Z,6.70
2024-02-29T10:52:28.422Z,6.30
2024-02-29T10:55:09.728Z,6.60
2024-02-29T10:58:24.239Z,6.30
2024-02-29T11:00:52.831Z,5.60
2024-02-29T11:03:21.025Z,6.20
2024-02-29T11:05:49.100Z,6.40
2024-02-29T11:08:17.293Z,6.00
2024-02-29T11:10:52.729Z,6.30
2024-02-29T11:13:21.218Z,5.40
2024-02-29T11:15:54.199Z,4.90
2024-02-29T11:18:25.823Z,6.10
2024-02-29T11:21:06.913Z,7.10
2024-02-29T11:23:39.458Z,5.80
2024-02-29T11:26:10.375Z,6.20
2024-02-29T11:28:42.601Z,6.20
2024-02-29T11:31:18.493Z,6.00
2024-02-29T11:33:47.933Z,6.80
2024-02-29T11:36:16.126Z,6.30
2024-02-29T11:38:46.142Z,5.30
2024-02-29T11:41:21.103Z,6.40
2024-02-29T11:43:50.807Z,6.50
2024-02-29T11:46:19.215Z,5.60
2024-02-29T11:48:49.972Z,5.30
2024-02-29T11:51:37.289Z,5.80
2024-02-29T11:54:07.176Z,5.30
2024-02-29T11:56:35.110Z,6.30
2024-02-29T11:59:04.425Z,5.70
2024-02-29T12:01:32.397Z,5.60
2024-02-29T12:04:01.580Z,6.00
2024-02-29T12:06:29.779Z,6.00
2024-02-29T12:08:57.715Z,5.70
2024-02-29T12:11:25.628Z,6.70
2024-02-29T12:13:53.482Z,7.50
2024-02-29T12:16:21.512Z,7.30
2024-02-29T12:18:49.578Z,5.80
2024-02-29T12:21:17.573Z,6.70
2024-02-29T12:23:45.432Z,7.20
2024-02-29T12:26:17.848Z,6.10
2024-02-29T12:28:49.570Z,6.50
2024-02-29T12:31:17.759Z,5.30
2024-02-29T12:33:46.702Z,7.10
2024-02-29T12:36:20.426Z,6.20
2024-02-29T12:38:49.738Z,5.90
2024-02-29T12:41:17.742Z,5.70
2024-02-29T12:43:50.033Z,5.90
2024-02-29T12:46:18.394Z,6.80
2024-02-29T12:48:47.672Z,5.80
2024-02-29T12:51:16.026Z,6.30
2024-02-29T12:53:43.905Z,6.10
2024-02-29T12:56:11.872Z,6.40
2024-02-29T12:58:41.077Z,5.10
2024-02-29T13:01:09.616Z,5.40
2024-02-29T13:03:37.753Z,5.50
2024-02-29T13:06:06.097Z,5.60
2024-02-29T13:08:35.482Z,6.30
2024-02-29T13:11:03.369Z,6.10
2024-02-29T13:13:31.243Z,4.90
2024-02-29T13:15:59.245Z,5.10
2024-02-29T13:18:27.598Z,4.90
2024-02-29T13:20:55.551Z,5.20
2024-02-29T13:23:23.428Z,4.80
2024-02-29T13:33:33.345Z,4.50
2024-02-29T13:36:01.391Z,4.20
2024-02-29T13:38:29.270Z,4.60
2024-02-29T13:40:57.119Z,4.80
2024-02-29T13:43:25.134Z,5.60
2024-02-29T13:45:53.238Z,5.40
2024-02-29T13:48:21.740Z,5.70
2024-02-29T13:50:49.834Z,5.30
2024-02-29T13:53:17.782Z,5.60
2024-02-29T13:55:48.184Z,6.20
2024-02-29T13:58:16.802Z,5.70
2024-02-29T14:00:45.501Z,5.30
2024-02-29T14:03:13.855Z,5.00
2024-02-29T14:05:41.729Z,4.90
2024-02-29T14:08:09.594Z,5.90
2024-02-29T14:10:37.529Z,5.00
2024-02-29T14:13:06.693Z,5.20
2024-02-29T14:15:34.627Z,5.20
2024-02-29T14:18:02.935Z,5.40
2024-02-29T14:20:31.505Z,4.80
2024-02-29T14:22:59.498Z,5.40
2024-02-29T14:25:27.484Z,4.30
2024-02-29T14:27:55.396Z,6.20
2024-02-29T14:30:23.387Z,4.20
2024-02-29T14:32:51.255Z,5.50
2024-02-29T14:35:20.835Z,5.10
2024-02-29T14:37:48.706Z,4.60
2024-02-29T14:40:16.986Z,5.70
2024-02-29T14:42:45.086Z,5.90
2024-02-29T14:45:13.365Z,5.90
2024-02-29T14:47:41.550Z,5.60
2024-02-29T14:50:11.004Z,5.70
2024-02-29T14:52:41.158Z,6.40
2024-02-29T14:55:09.866Z,4.60
2024-02-29T14:57:37.992Z,5.70
2024-02-29T15:00:13.637Z,5.30
2024-02-29T15:02:42.684Z,6.20
2024-02-29T15:05:10.829Z,6.90
2024-02-29T15:07:38.975Z,6.50
2024-02-29T15:10:08.330Z,5.80
2024-02-29T15:12:36.246Z,6.50
2024-02-29T15:15:04.831Z,6.10
2024-02-29T15:17:34.368Z,7.50
2024-02-29T15:20:04.975Z,5.30
2024-02-29T15:22:32.936Z,6.00
2024-02-29T15:25:01.114Z,5.90
2024-02-29T15:27:34.094Z,6.30
2024-02-29T15:30:02.026Z,6.00
2024-02-29T15:32:30.164Z,6.40
2024-02-29T15:34:58.109Z,6.10
2024-02-29T15:37:26.053Z,7.10
2024-02-29T15:39:55.751Z,8.50
2024-02-29T15:42:23.762Z,6.90
2024-02-29T15:44:51.656Z,6.60
2024-02-29T15:47:20.306Z,6.80
2024-02-29T15:49:49.490Z,7.90
2024-02-29T15:52:18.342Z,11.20
2024-02-29T15:54:46.404Z,14.40
2024-02-29T15:57:14.490Z,8.70
2024-02-29T15:59:42.845Z,10.80
2024-02-29T16:02:11.052Z,15.90
2024-02-29T16:04:39.328Z,17.60
2024-02-29T16:07:07.142Z,21.70
2024-02-29T16:09:34.990Z,15.80
2024-02-29T16:12:03.240Z,14.80
2024-02-29T16:14:32.964Z,19.40
2024-02-29T16:17:03.583Z,21.90
2024-02-29T16:19:31.743Z,23.10
2024-02-29T16:21:59.776Z,17.80
2024-02-29T16:24:28.951Z,10.50
2024-02-29T16:26:56.834Z,8.40
2024-02-29T16:29:24.789Z,5.30
2024-02-29T16:31:53.105Z,5.20
2024-02-29T16:34:21.154Z,6.30
2024-02-29T16:36:49.753Z,5.90
2024-02-29T16:39:17.704Z,6.10
2024-02-29T16:41:45.863Z,5.20
2024-02-29T16:44:13.939Z,5.20
2024-02-29T16:46:42.647Z,5.60
2024-02-29T16:49:10.712Z,6.30
2024-02-29T16:51:38.973Z,5.50
2024-02-29T16:54:06.842Z,6.30
2024-02-29T16:56:34.705Z,5.00
2024-02-29T16:59:03.864Z,5.80
2024-02-29T17:01:31.857Z,5.90
2024-02-29T17:04:00.430Z,7.20
2024-02-29T17:06:29.442Z,6.40
2024-02-29T17:08:57.409Z,6.80
2024-02-29T17:11:26.226Z,8.20
2024-02-29T17:13:54.987Z,8.20
2024-02-29T17:16:22.849Z,8.60
2024-02-29T17:18:51.015Z,8.50
2024-02-29T17:21:20.129Z,6.90
2024-02-29T17:23:47.996Z,8.20
2024-02-29T17:26:17.922Z,9.00
2024-02-29T17:28:46.081Z,9.20
2024-02-29T17:31:14.208Z,9.30
2024-02-29T17:33:42.140Z,10.10
2024-02-29T17:36:10.291Z,7.80
2024-02-29T17:38:38.675Z,9.20
2024-02-29T17:41:06.753Z,9.40
2024-02-29T17:43:34.840Z,8.30
2024-02-29T17:46:03.016Z,5.60
2024-02-29T17:48:30.960Z,8.30
2024-02-29T17:50:59.038Z,6.80
2024-02-29T17:53:27.402Z,8.10
2024-02-29T17:55:55.282Z,7.90
2024-02-29T17:58:24.352Z,7.40
2024-02-29T18:00:52.488Z,8.10
2024-02-29T18:03:20.468Z,6.70
2024-02-29T18:05:48.477Z,7.50
2024-02-29T18:08:16.370Z,7.90
2024-02-29T18:10:44.484Z,5.90
2024-02-29T18:13:12.538Z,6.70
2024-02-29T18:15:40.616Z,5.90
2024-02-29T18:18:09.069Z,7.50
2024-02-29T18:20:37.122Z,7.30
2024-02-29T18:23:05.078Z,5.30
2024-02-29T18:25:33.070Z,9.00
2024-02-29T18:28:01.131Z,5.90
2024-02-29T18:30:29.814Z,8.20
2024-02-29T18:32:57.796Z,5.30
2024-02-29T18:35:25.796Z,5.20
2024-02-29T18:37:54.135Z,7.80
2024-02-29T18:40:22.203Z,8.50
2024-02-29T18:42:50.946Z,7.90
2024-02-29T18:45:19.887Z,7.50
2024-02-29T18:47:48.060Z,6.70
2024-02-29T18:50:16.034Z,5.90
2024-02-29T18:52:44.084Z,6.80
2024-02-29T18:55:13.339Z,8.20
2024-02-29T18:57:42.333Z,6.00
2024-02-29T19:00:11.359Z,6.30
2024-02-29T19:02:39.386Z,8.30
2024-02-29T19:05:08.030Z,8.20
2024-02-29T19:07:36.188Z,9.80
2024-02-29T19:10:04.572Z,6.30
2024-02-29T19:12:33.106Z,7.90
2024-02-29T19:15:01.024Z,6.30
2024-02-29T19:17:28.942Z,10.30
2024-02-29T19:19:56.977Z,8.60
2024-02-29T19:22:25.024Z,9.90
2024-02-29T19:24:53.139Z,13.90
2024-02-29T19:27:23.347Z,14.20
2024-02-29T19:29:53.605Z,12.70
2024-02-29T19:32:21.824Z,13.20
2024-02-29T19:34:49.798Z,7.90
2024-02-29T19:37:17.700Z,9.60
2024-02-29T19:39:46.383Z,9.00
2024-02-29T19:42:14.352Z,10.10
2024-02-29T19:44:42.384Z,10.20
2024-02-29T19:47:10.315Z,8.80
2024-02-29T19:49:39.278Z,9.70
2024-02-29T19:52:07.647Z,7.70
2024-02-29T19:54:35.645Z,9.10
2024-02-29T19:57:04.188Z,9.90
2024-02-29T19:59:32.149Z,6.80
2024-02-29T20:02:00.086Z,8.60
2024-02-29T20:04:29.451Z,8.50
2024-02-29T20:06:57.605Z,9.50
2024-02-29T20:09:25.567Z,12.20
2024-02-29T20:11:53.527Z,14.10
2024-02-29T20:14:21.496Z,13.10
2024-02-29T20:16:49.981Z,14.60
2024-02-29T20:19:17.938Z,14.20
2024-02-29T20:21:46.532Z,8.40
2024-02-29T20:24:14.605Z,9.90
2024-02-29T20:26:44.744Z,9.40
2024-02-29T20:29:12.608Z,8.70
2024-02-29T20:31:40.447Z,8.10
2024-02-29T20:34:08.465Z,9.40
2024-02-29T20:36:36.904Z,11.60
2024-02-29T20:39:04.768Z,13.70
2024-02-29T20:41:32.695Z,13.50
2024-02-29T20:44:02.773Z,10.10
2024-02-29T20:46:33.830Z,10.40
2024-02-29T20:49:02.053Z,14.00
2024-02-29T20:51:30.041Z,15.30
2024-02-29T20:53:58.633Z,14.50
2024-02-29T20:56:26.601Z,13.80
2024-02-29T20:58:54.467Z,11.30
2024-02-29T21:01:22.451Z,12.60
2024-02-29T21:03:51.197Z,11.80
2024-02-29T21:06:21.484Z,7.80
2024-02-29T21:08:49.287Z,10.10
2024-02-29T21:11:17.089Z,11.60
2024-02-29T21:13:46.153Z,13.40
2024-02-29T21:16:14.027Z,11.60
2024-02-29T21:18:42.010Z,11.60
2024-02-29T21:21:09.670Z,11.50
2024-02-29T21:23:39.843Z,11.10
2024-02-29T21:26:08.374Z,11.80
2024-02-29T21:28:36.137Z,11.30
2024-02-29T21:31:04.268Z,7.50
2024-02-29T21:33:32.597Z,9.20
2024-02-29T21:36:00.207Z,10.90
2024-02-29T21:38:27.904Z,11.70
2024-02-29T21:40:55.610Z,11.50
2024-02-29T21:43:23.392Z,10.50
2024-02-29T21:45:51.210Z,12.40
2024-02-29T21:48:18.837Z,12.10
2024-02-29T21:50:46.781Z,11.50
2024-02-29T21:53:14.527Z,10.40
2024-02-29T21:55:43.151Z,6.90
2024-02-29T21:58:10.940Z,9.80
2024-02-29T22:00:38.660Z,10.00
2024-02-29T22:03:06.476Z,14.20
2024-02-29T22:05:34.177Z,18.70
2024-02-29T22:08:01.893Z,14.80
2024-02-29T22:10:29.738Z,13.90
2024-02-29T22:12:57.511Z,12.50
2024-02-29T22:15:25.230Z,13.00
2024-02-29T22:17:54.245Z,14.60
2024-02-29T22:20:23.041Z,8.80
2024-02-29T22:22:50.715Z,12.10
2024-02-29T22:25:21.243Z,15.70
2024-02-29T22:27:49.024Z,13.60
2024-02-29T22:30:18.053Z,12.00
2024-02-29T22:32:45.720Z,12.40
2024-02-29T22:35:13.504Z,12.60
2024-02-29T22:37:41.351Z,11.70
2024-02-29T22:40:09.739Z,11.80
2024-02-29T22:42:37.471Z,11.20
2024-02-29T22:45:05.812Z,8.60
2024-02-29T22:47:33.591Z,11.10
2024-02-29T22:50:01.394Z,14.40
2024-02-29T22:52:29.138Z,12.70
2024-02-29T22:54:56.913Z,10.80
2024-02-29T22:57:24.578Z,11.20
2024-02-29T22:59:52.173Z,10.80
2024-02-29T23:02:19.841Z,15.30
2024-02-29T23:04:47.579Z,14.90
2024-02-29T23:07:15.294Z,13.30
2024-02-29T23:09:43.055Z,8.40
2024-02-29T23:12:10.690Z,9.60
2024-02-29T23:14:38.284Z,11.80
2024-02-29T23:17:05.856Z,12.20
2024-02-29T23:19:33.622Z,10.90
2024-02-29T23:22:01.348Z,10.80
2024-02-29T23:24:29.041Z,9.00
2024-02-29T23:26:56.749Z,10.40
2024-02-29T23:29:24.600Z,10.50
2024-02-29T23:31:52.279Z,11.00
2024-02-29T23:34:20.873Z,7.50
2024-02-29T23:36:49.004Z,8.80
2024-02-29T23:39:16.774Z,8.90
2024-02-29T23:41:44.433Z,10.50
2024-02-29T23:44:12.066Z,9.90
2024-02-29T23:46:43.781Z,9.20
2024-02-29T23:49:11.439Z,9.20
2024-02-29T23:51:39.129Z,10.40
2024-02-29T23:54:06.974Z,10.40
2024-02-29T23:56:34.695Z,10.40
2024-02-29T23:59:02.364Z,8.90
